createdAt,value
2023-01-20T00:02:33.394Z,52.47
2023-01-20T00:07:35.360Z,51.30
2023-01-20T00:12:37.262Z,38.37
2023-01-20T00:17:39.086Z,51.70
2023-01-20T00:22:40.891Z,49.03
2023-01-20T00:27:42.713Z,49.33
2023-01-20T00:32:44.697Z,54.53
2023-01-20T00:37:46.763Z,45.27
2023-01-20T00:42:48.642Z,49.35
2023-01-20T00:47:50.466Z,46.83
2023-01-20T00:52:52.283Z,48.33
2023-01-20T00:57:54.181Z,45.53
2023-01-20T01:02:56.144Z,39.03
2023-01-20T01:07:58.040Z,42.57
2023-01-20T01:13:00.951Z,46.40
2023-01-20T01:18:02.898Z,46.25
2023-01-20T01:23:04.779Z,46.17
2023-01-20T01:28:06.680Z,44.00
2023-01-20T01:33:08.571Z,44.40
2023-01-20T01:38:10.435Z,46.90
2023-01-20T01:43:35.757Z,45.93
2023-01-20T01:48:40.468Z,44.63
2023-01-20T01:53:46.093Z,43.13
2023-01-20T01:58:48.901Z,39.40
2023-01-20T02:03:59.988Z,40.28
2023-01-20T02:09:02.674Z,39.75
2023-01-20T02:19:08.730Z,43.95
2023-01-20T02:24:43.239Z,40.05
2023-01-20T02:29:48.181Z,41.05
2023-01-20T02:34:57.339Z,35.78
2023-01-20T02:40:28.332Z,33.85
2023-01-20T02:45:42.135Z,36.60
2023-01-20T02:50:54.137Z,36.00
2023-01-20T02:55:56.001Z,39.70
2023-01-20T03:01:08.478Z,37.97
2023-01-20T03:06:20.242Z,37.80
2023-01-20T03:11:22.140Z,37.38
2023-01-20T03:16:24.792Z,34.97
2023-01-20T03:26:28.448Z,35.20
2023-01-20T03:31:34.227Z,41.40
2023-01-20T03:36:36.175Z,35.83
2023-01-20T03:41:49.950Z,36.47
2023-01-20T03:47:18.146Z,36.00
2023-01-20T03:52:48.121Z,35.55
2023-01-20T03:58:01.816Z,33.25
2023-01-20T04:03:09.343Z,36.22
2023-01-20T04:08:11.417Z,37.20
2023-01-20T04:13:13.722Z,36.87
2023-01-20T04:18:17.561Z,36.10
2023-01-20T04:23:28.077Z,33.67
2023-01-20T04:28:30.425Z,32.38
2023-01-20T04:33:32.334Z,31.73
2023-01-20T04:38:34.273Z,24.93
2023-01-20T04:43:36.219Z,33.60
2023-01-20T04:48:38.030Z,34.57
2023-01-20T04:53:39.818Z,34.43
2023-01-20T04:58:41.906Z,34.57
2023-01-20T05:03:44.041Z,37.33
2023-01-20T05:08:45.835Z,34.80
2023-01-20T05:13:47.588Z,35.43
2023-01-20T05:18:49.619Z,34.03
2023-01-20T05:23:53.956Z,32.33
2023-01-20T05:28:55.768Z,31.48
2023-01-20T05:33:57.540Z,32.47
2023-01-20T05:38:59.251Z,28.83
2023-01-20T05:44:00.991Z,36.22
2023-01-20T05:49:02.783Z,35.25
2023-01-20T05:54:04.671Z,33.45
2023-01-20T05:59:06.459Z,36.83
2023-01-20T06:04:08.292Z,32.40
2023-01-20T06:09:10.037Z,37.47
2023-01-20T06:14:12.457Z,34.38
2023-01-20T06:19:14.221Z,31.17
2023-01-20T06:24:16.088Z,36.42
2023-01-20T06:29:17.834Z,34.63
2023-01-20T06:34:19.588Z,34.53
2023-01-20T06:39:21.335Z,34.80
2023-01-20T06:44:23.136Z,36.00
2023-01-20T06:49:24.922Z,33.67
2023-01-20T06:54:26.660Z,27.10
2023-01-20T06:59:28.409Z,39.17
2023-01-20T07:04:30.356Z,25.13
2023-01-20T07:09:32.096Z,33.05
2023-01-20T07:14:33.819Z,42.03
2023-01-20T07:19:35.644Z,28.97
2023-01-20T07:24:37.450Z,34.77
2023-01-20T07:29:39.166Z,37.70
2023-01-20T07:34:40.914Z,38.10
2023-01-20T07:39:42.739Z,33.40
2023-01-20T07:44:44.520Z,35.23
2023-01-20T07:49:46.301Z,36.13
2023-01-20T07:54:48.094Z,35.93
2023-01-20T07:59:49.855Z,40.47
2023-01-20T08:04:51.691Z,42.17
2023-01-20T08:09:53.508Z,37.00
2023-01-20T08:14:55.398Z,34.63
2023-01-20T08:19:57.294Z,32.00
2023-01-20T08:24:59.257Z,42.83
2023-01-20T08:30:00.978Z,42.40
2023-01-20T08:35:02.790Z,41.37
2023-01-20T08:40:09.268Z,36.80
2023-01-20T08:45:11.213Z,39.30
2023-01-20T08:50:14.098Z,38.03
2023-01-20T08:55:16.238Z,36.90
2023-01-20T09:00:18.798Z,42.30
2023-01-20T09:05:20.569Z,38.53
2023-01-20T09:10:22.324Z,36.60
2023-01-20T09:15:25.602Z,38.00
2023-01-20T09:20:27.739Z,40.90
2023-01-20T09:25:29.549Z,37.67
2023-01-20T09:30:31.349Z,41.80
2023-01-20T09:35:33.087Z,31.80
2023-01-20T09:40:58.486Z,37.17
2023-01-20T09:46:14.459Z,40.83
2023-01-20T09:51:31.393Z,39.92
2023-01-20T09:56:35.878Z,36.03
2023-01-20T10:01:48.537Z,41.58
2023-01-20T10:06:52.763Z,35.22
2023-01-20T10:11:58.984Z,38.92
2023-01-20T10:17:37.159Z,33.55
2023-01-20T10:22:56.482Z,40.00
2023-01-20T10:28:11.669Z,32.78
2023-01-20T10:33:23.825Z,35.13
2023-01-20T10:38:53.572Z,38.30
2023-01-20T10:43:56.053Z,32.58
2023-01-20T10:49:16.380Z,40.70
2023-01-20T10:54:29.216Z,34.60
2023-01-20T10:59:52.157Z,33.70
2023-01-20T11:05:18.971Z,34.90
2023-01-20T11:10:22.797Z,34.85
2023-01-20T11:15:29.594Z,35.72
2023-01-20T11:20:31.358Z,35.05
2023-01-20T11:25:33.137Z,32.77
2023-01-20T11:30:34.916Z,34.87
2023-01-20T11:35:36.943Z,41.13
2023-01-20T11:40:38.673Z,30.63
2023-01-20T11:45:40.404Z,36.30
2023-01-20T11:50:49.529Z,35.47
2023-01-20T11:55:56.265Z,32.78
2023-01-20T12:01:07.784Z,30.95
2023-01-20T12:06:19.303Z,35.58
2023-01-20T12:11:31.113Z,32.40
2023-01-20T12:16:33.000Z,31.65
2023-01-20T12:21:35.785Z,30.57
2023-01-20T12:26:37.552Z,30.08
2023-01-20T12:31:39.335Z,33.55
2023-01-20T12:36:53.771Z,28.97
2023-01-20T12:42:12.121Z,28.88
2023-01-20T12:47:22.982Z,31.90
2023-01-20T12:52:58.331Z,27.15
2023-01-20T12:58:30.974Z,26.13
2023-01-20T13:03:41.462Z,32.85
2023-01-20T13:09:06.289Z,27.75
2023-01-20T13:14:22.994Z,26.33
2023-01-20T13:19:37.311Z,26.67
2023-01-20T13:24:39.570Z,28.48
2023-01-20T13:29:50.948Z,27.75
2023-01-20T13:34:52.898Z,29.13
2023-01-20T13:39:55.171Z,29.17
2023-01-20T13:45:12.248Z,25.05
2023-01-20T13:50:31.534Z,21.25
2023-01-20T13:55:42.682Z,23.63
2023-01-20T14:00:44.630Z,24.50
2023-01-20T14:05:56.345Z,23.80
2023-01-20T14:11:08.072Z,22.52
2023-01-20T14:16:34.606Z,24.83
2023-01-20T14:21:40.698Z,22.50
2023-01-20T14:26:42.433Z,24.20
2023-01-20T14:31:45.964Z,27.73
2023-01-20T14:36:48.005Z,23.17
2023-01-20T14:41:51.606Z,23.63
2023-01-20T14:46:55.577Z,24.83
2023-01-20T14:51:57.568Z,24.17
2023-01-20T14:56:59.973Z,23.35
2023-01-20T15:02:02.831Z,22.92
2023-01-20T15:07:04.798Z,23.58
2023-01-20T15:12:47.964Z,24.80
2023-01-20T15:18:13.919Z,24.73
2023-01-20T15:23:27.602Z,22.52
2023-01-20T15:28:29.543Z,22.30
2023-01-20T15:33:31.446Z,21.07
2023-01-20T15:38:33.185Z,23.47
2023-01-20T15:43:34.930Z,19.88
2023-01-20T15:48:36.703Z,22.90
2023-01-20T15:53:38.468Z,23.57
2023-01-20T15:58:40.312Z,21.83
2023-01-20T16:03:42.723Z,23.57
2023-01-20T16:08:46.578Z,25.02
2023-01-20T16:13:48.539Z,20.17
2023-01-20T16:18:50.360Z,21.53
2023-01-20T16:23:52.226Z,26.13
2023-01-20T16:28:55.708Z,21.03
2023-01-20T16:33:57.628Z,25.02
2023-01-20T16:38:59.560Z,20.67
2023-01-20T16:44:01.419Z,14.77
2023-01-20T16:49:03.254Z,24.37
2023-01-20T16:54:05.139Z,29.03
2023-01-20T16:59:06.981Z,20.53
2023-01-20T17:04:08.749Z,20.40
2023-01-20T17:09:10.590Z,22.43
2023-01-20T17:14:12.397Z,23.67
2023-01-20T17:19:16.136Z,18.97
2023-01-20T17:24:19.257Z,24.38
2023-01-20T17:29:21.612Z,22.58
2023-01-20T17:34:23.511Z,27.05
2023-01-20T17:39:25.479Z,23.47
2023-01-20T17:44:27.387Z,28.97
2023-01-20T17:49:29.185Z,24.87
2023-01-20T17:54:31.073Z,25.70
2023-01-20T17:59:32.851Z,25.80
2023-01-20T18:04:34.640Z,26.00
2023-01-20T18:09:36.636Z,24.23
2023-01-20T18:14:38.491Z,28.30
2023-01-20T18:19:40.361Z,27.27
2023-01-20T18:24:42.235Z,19.70
2023-01-20T18:29:44.041Z,24.83
2023-01-20T18:34:46.540Z,23.80
2023-01-20T18:39:48.313Z,25.35
2023-01-20T18:44:50.844Z,25.60
2023-01-20T18:49:53.910Z,27.95
2023-01-20T18:54:55.759Z,24.48
2023-01-20T18:59:58.077Z,27.92
2023-01-20T19:04:59.981Z,24.57
2023-01-20T19:10:02.013Z,27.43
2023-01-20T19:15:07.223Z,25.58
2023-01-20T19:20:10.161Z,26.92
2023-01-20T19:25:11.933Z,26.17
2023-01-20T19:30:15.564Z,29.02
2023-01-20T19:35:17.505Z,26.73
2023-01-20T19:40:19.402Z,28.20
2023-01-20T19:45:21.295Z,24.83
2023-01-20T19:50:23.182Z,31.13
2023-01-20T19:55:25.069Z,27.80
2023-01-20T20:00:26.850Z,31.13
2023-01-20T20:05:28.863Z,23.07
2023-01-20T20:10:30.747Z,30.00
2023-01-20T20:15:32.723Z,28.77
2023-01-20T20:20:34.648Z,31.93
2023-01-20T20:25:36.507Z,29.33
2023-01-20T20:30:38.438Z,29.30
2023-01-20T20:35:40.381Z,29.53
2023-01-20T20:40:42.387Z,30.13
2023-01-20T20:45:44.286Z,29.40
2023-01-20T20:50:46.227Z,30.17
2023-01-20T20:55:48.175Z,28.87
2023-01-20T21:00:50.589Z,29.17
2023-01-20T21:05:52.511Z,31.35
2023-01-20T21:10:54.439Z,28.20
2023-01-20T21:16:04.738Z,23.07
2023-01-20T21:21:08.304Z,32.35
2023-01-20T21:26:12.344Z,30.70
2023-01-20T21:36:18.081Z,29.58
2023-01-20T21:41:19.984Z,27.53
2023-01-20T21:46:21.778Z,31.10
2023-01-20T21:51:23.686Z,32.23
2023-01-20T21:56:25.599Z,28.33
2023-01-20T22:01:27.575Z,29.03
2023-01-20T22:06:29.557Z,29.90
2023-01-20T22:11:31.416Z,33.10
2023-01-20T22:16:33.341Z,32.37
2023-01-20T22:21:35.380Z,26.97
2023-01-20T22:26:37.215Z,31.33
2023-01-20T22:31:39.388Z,28.70
2023-01-20T22:36:41.271Z,29.17
2023-01-20T22:41:43.169Z,32.10
2023-01-20T22:46:45.030Z,32.73
2023-01-20T22:51:46.955Z,23.63
2023-01-20T22:56:48.822Z,34.33
2023-01-20T23:01:50.679Z,32.90
2023-01-20T23:06:52.513Z,33.90
2023-01-20T23:11:54.295Z,28.27
2023-01-20T23:16:56.136Z,31.00
2023-01-20T23:21:58.064Z,30.30
2023-01-20T23:26:59.962Z,24.23
2023-01-20T23:32:01.915Z,28.77
2023-01-20T23:37:04.005Z,25.27
2023-01-20T23:42:05.942Z,28.70
2023-01-20T23:47:07.717Z,30.17
2023-01-20T23:52:09.572Z,28.47
2023-01-20T23:57:11.460Z,28.33
